Calicut Airport
VOCL : now visible

Airfield :











YOU CAN JOIN US ON...

 
LOGIN :

Register | Disclaimer

   EN    FR    IT 

 









Legend :    VFR   Marginal VFR   IFR   Intensive IFR   Very Intensive IFR
Visi :
Ceiling :
>= 8 km
>= 3000ft
5 to 8 km
1000 to 3000 ft
1500m to 5 km
500 to 1000 ft
800 to 1500m
200 to 500 ft
< 800m
< 200 ft
Symbols :   Thunderstorms  Fog  Heavy snow  Heavy precipitations  Wind > 20 kt






- Airport Elevation : 342 ft
- IATA code : CCJ


VOCL - Calicut

CURRENT METAR :
  • 270630Z 33008KT 6000 SCT012 SCT018 33/25 Q1009 NOSIG

EXPIRED METARs :
  • 270600Z 30007KT 6000 SCT012 SCT018 32/25 Q1009 NOSIG
  • 270530Z 31005KT 6000 SCT012 SCT018 32/25 Q1009 NOSIG
  • 270500Z 27007KT 6000 FEW015 SCT018 BKN080 31/25 Q1009 NOSIG
  • 270430Z 33006KT 6000 FEW015 SCT018 BKN080 31/25 Q1009 NOSIG

TAF TAF VOCL
Valid from the 27 at 06:00 until the 28 at 12:00 UTC


270500Z 2706/2812 32010KT 6000 FEW015 SCT018 BKN080
TEMPO 2709/2716 2500 TSRA RA SCT008 SCT012 FEW025CB BKN080
BECMG 2717/2718 VRB03KT 5000 BR SCT012 BKN080
TEMPO 2722/2803 3000 RA BR SCT008 SCT012 FEW025CB BKN080
BECMG 2804/2806 30010KT 6000 SCT012 BKN080
VOMF FIR / Asia



MET'MAP, your aeronautical weather chart ! - Copyright ORBIFLY December 2007 - Disclaimer

ORBIFLY MET'MAP TEAM :

Programming & Development : Alexandra Zaïnal
Concept & original design : Baudouin d'Aumeries
Assistance for programming : Marc-Olivier Méhu
Technical & hardware support : Manuel Goepfert

Contact : metmap@orbifly.com




SOURCES & CREDITS :

   NOAA       Earth
Advisory